Time;durP1;ratioP1;P1;durP2;ratioP2;P2;SDS_P1;SDS_P2;PMS_P1;PMS_P2;Temp;Humidity;BMP_temperature;BMP_pressure;BME280_temperature;BME280_humidity;BME280_pressure;Samples;Min_cycle;Max_cycle;Signal;HPM_P1;HPM_P2
2021/12/09 01:11:57;;;;;;;18.70;12.93;;;;;;;1.76;100.00;98931.44;5549017;23;20058;-87
2021/12/09 02:36:45;;;;;;;22.30;15.35;;;;;;;1.84;100.00;98923.72;4658780;26;20035;-86
2021/12/09 03:45:39;;;;;;;25.65;16.35;;;;;;;2.20;100.00;98901.88;1145532;23;20326;-88
2021/12/09 03:52:42;;;;;;;24.02;16.27;;;;;;;1.93;100.00;98913.19;4947573;28;20043;-86
2021/12/09 03:58:40;;;;;;;24.33;16.53;;;;;;;2.25;100.00;98915.34;5104603;23;20043;-87
2021/12/09 04:01:48;;;;;;;22.40;15.45;;;;;;;2.38;100.00;98922.81;5212364;23;20053;-87
2021/12/09 04:09:29;;;;;;;27.90;16.15;;;;;;;2.05;100.00;98929.50;4999076;28;20038;-84
2021/12/09 04:13:10;;;;;;;26.42;16.48;;;;;;;2.10;100.00;98919.41;4929929;29;20036;-87
2021/12/09 04:17:04;;;;;;;25.13;16.27;;;;;;;2.09;100.00;98925.59;4939878;29;20095;-86
2021/12/09 04:22:34;;;;;;;22.58;14.68;;;;;;;2.00;100.00;98934.34;576229;26;15897281;-89
2021/12/09 04:25:26;;;;;;;27.52;17.17;;;;;;;1.84;100.00;98934.16;4997473;28;20070;-89
2021/12/09 04:28:33;;;;;;;25.75;16.52;;;;;;;1.85;100.00;98935.81;4985446;28;20046;-88
2021/12/09 04:31:09;;;;;;;24.38;16.52;;;;;;;1.67;100.00;98927.09;4998041;28;20019;-89
2021/12/09 04:33:37;;;;;;;26.13;17.02;;;;;;;1.52;100.00;98927.56;4999049;28;20023;-83
2021/12/09 04:36:03;;;;;;;26.00;16.80;;;;;;;1.79;100.00;98928.56;4982158;28;20019;-81
2021/12/09 04:41:46;;;;;;;26.67;15.73;;;;;;;1.89;100.00;98924.09;4947708;26;20026;-91
2021/12/09 04:44:18;;;;;;;26.10;16.27;;;;;;;1.88;100.00;98919.84;4965969;28;20101;-88
2021/12/09 04:46:47;;;;;;;22.67;14.73;;;;;;;2.08;100.00;98911.75;4987670;28;20094;-92
2021/12/09 04:52:35;;;;;;;22.25;13.50;;;;;;;2.22;100.00;98915.63;5091656;23;20043;-85
2021/12/09 04:55:19;;;;;;;;;;;;;;;2.14;100.00;98920.78;4979899;28;20055;-85
2021/12/09 04:58:13;;;;;;;19.60;12.63;;;;;;;2.18;100.00;98922.13;4982925;23;19921;-83
2021/12/09 05:05:15;;;;;;;19.27;11.60;;;;;;;2.25;100.00;98941.47;4975522;28;20038;-91
2021/12/09 05:07:54;;;;;;;17.90;11.38;;;;;;;2.41;100.00;98939.03;4975986;29;20058;-89
2021/12/09 05:11:30;;;;;;;18.17;11.68;;;;;;;2.33;100.00;98933.69;4970270;28;20070;-87
2021/12/09 05:14:25;;;;;;;19.30;12.15;;;;;;;2.28;100.00;98935.94;5012645;28;20065;-88
2021/12/09 05:17:25;;;;;;;19.02;12.30;;;;;;;2.35;100.00;98942.22;5206080;23;20054;-87
2021/12/09 05:20:10;;;;;;;21.50;13.18;;;;;;;2.08;100.00;98943.09;4956073;29;20050;-87
2021/12/09 05:22:46;;;;;;;20.80;13.13;;;;;;;1.88;100.00;98932.91;4959035;29;20047;-90
2021/12/09 05:25:21;;;;;;;21.40;13.65;;;;;;;1.74;100.00;98942.03;4969334;28;20047;-89
2021/12/09 05:28:01;;;;;;;24.10;13.93;;;;;;;1.66;100.00;98949.75;4970243;28;20035;-86
2021/12/09 05:33:51;;;;;;;25.38;14.68;;;;;;;2.11;100.00;98951.59;4976565;28;20058;-88
2021/12/09 05:36:27;;;;;;;22.02;13.90;;;;;;;2.09;100.00;98962.19;4930767;28;20035;-87
2021/12/09 05:39:18;;;;;;;28.30;15.43;;;;;;;1.89;100.00;98958.06;4950305;29;20043;-86
2021/12/09 05:44:57;;;;;;;25.67;15.60;;;;;;;1.65;100.00;98963.81;4684848;26;20058;-89
2021/12/09 05:50:54;;;;;;;28.50;17.27;;;;;;;1.71;100.00;98971.06;650181;26;20462;-83
2021/12/09 05:53:37;;;;;;;24.90;15.98;;;;;;;1.58;100.00;98972.34;5358428;23;20055;-86
2021/12/09 05:56:16;;;;;;;30.42;17.00;;;;;;;1.67;100.00;98981.91;4978052;28;20035;-82
2021/12/09 05:59:55;;;;;;;28.17;16.55;;;;;;;1.82;100.00;98983.13;4978456;29;20043;-90
2021/12/09 06:02:45;;;;;;;28.63;17.88;;;;;;;1.67;100.00;98982.75;4979466;28;20106;-89
2021/12/09 06:05:37;;;;;;;26.05;16.02;;;;;;;1.56;100.00;98991.56;4977173;29;20055;-91
2021/12/09 06:08:07;;;;;;;30.75;17.17;;;;;;;1.63;100.00;98981.38;4977080;28;20499;-88
2021/12/09 06:11:26;;;;;;;29.80;16.92;;;;;;;1.70;100.00;98981.63;4951994;29;20039;-91
2021/12/09 06:14:10;;;;;;;28.50;17.70;;;;;;;1.93;100.00;98995.97;5030235;23;20465;-88
2021/12/09 06:16:43;;;;;;;29.40;16.98;;;;;;;1.98;100.00;98991.16;5012611;28;20022;-89
2021/12/09 06:27:55;;;;;;;18.40;11.17;;;;;;;2.29;100.00;98996.88;4640989;23;20334;-87
2021/12/09 06:31:29;;;;;;;25.85;15.38;;;;;;;2.24;100.00;99005.16;4945349;29;20035;-86
2021/12/09 06:34:44;;;;;;;36.75;20.70;;;;;;;2.32;100.00;99007.84;5096311;23;20042;-90
2021/12/09 06:43:33;;;;;;;32.22;18.55;;;;;;;1.92;100.00;99008.19;5254764;23;20055;-90
2021/12/09 06:46:50;;;;;;;36.05;18.95;;;;;;;1.96;100.00;99003.50;4980319;28;20088;-89
2021/12/09 06:50:16;;;;;;;32.20;17.92;;;;;;;2.24;100.00;99017.41;4921873;29;20143;-90
2021/12/09 08:52:23;;;;;;;19.43;11.43;;;;;;;3.29;100.00;99058.47;5684714;23;20139;-91
2021/12/09 08:54:52;;;;;;;23.48;13.25;;;;;;;3.33;100.00;99065.06;4941363;29;20381;-88
2021/12/09 08:57:19;;;;;;;19.70;12.90;;;;;;;3.73;100.00;99066.31;4959531;29;20027;-90
2021/12/09 08:59:45;;;;;;;21.02;13.07;;;;;;;3.80;100.00;99072.59;4962399;29;20039;-90
2021/12/09 09:02:11;;;;;;;17.27;10.88;;;;;;;4.14;100.00;99076.06;4963020;29;20039;-89
2021/12/09 09:04:37;;;;;;;20.38;11.98;;;;;;;4.45;100.00;99074.56;4968277;29;20035;-89
2021/12/09 09:07:04;;;;;;;17.98;11.70;;;;;;;4.54;100.00;99080.66;4972260;29;20031;-88
2021/12/09 09:09:33;;;;;;;23.90;12.20;;;;;;;4.28;100.00;99072.84;4972059;29;20035;-89
2021/12/09 09:11:59;;;;;;;16.42;11.38;;;;;;;4.13;100.00;99077.03;4967658;29;20108;-91
2021/12/09 09:14:25;;;;;;;19.15;12.20;;;;;;;4.04;100.00;99080.59;4955359;29;20130;-91
2021/12/09 09:16:51;;;;;;;18.60;11.75;;;;;;;4.18;100.00;99087.06;4933573;29;20062;-91
2021/12/09 09:19:16;;;;;;;19.35;12.50;;;;;;;4.12;100.00;99091.13;4951089;29;20024;-86
2021/12/09 09:21:42;;;;;;;21.88;13.02;;;;;;;4.35;100.00;99086.97;4950139;29;20036;-92
2021/12/09 09:24:09;;;;;;;22.92;13.23;;;;;;;4.47;100.00;99098.00;4939052;23;20050;-92
2021/12/09 09:26:35;;;;;;;19.80;10.85;;;;;;;4.44;100.00;99099.13;4930638;29;20067;-92
2021/12/09 09:29:00;;;;;;;17.65;11.15;;;;;;;4.48;100.00;99110.13;4929873;29;20039;-93
2021/12/09 09:31:29;;;;;;;20.20;10.85;;;;;;;4.46;100.00;99115.56;4937859;28;20044;-90
2021/12/09 09:33:57;;;;;;;23.77;10.93;;;;;;;4.42;100.00;99116.00;4931813;29;20044;-90
2021/12/09 09:36:31;;;;;;;24.52;12.57;;;;;;;4.30;100.00;99112.84;4918881;29;20472;-92
2021/12/09 09:39:22;;;;;;;18.58;11.02;;;;;;;4.23;100.00;99116.25;4922201;29;20082;-91
2021/12/09 09:43:04;;;;;;;22.08;12.77;;;;;;;4.23;100.00;99124.94;4922892;29;20072;-92
2021/12/09 09:45:18;;;;;;;24.48;13.88;;;;;;;3.96;100.00;99128.56;4930657;29;20136;-90
2021/12/09 09:50:57;;;;;;;21.20;12.23;;;;;;;3.61;100.00;99145.16;4721533;26;20038;-91
2021/12/09 09:53:51;;;;;;;21.63;13.07;;;;;;;3.57;100.00;99146.47;4997070;28;20062;-91
2021/12/09 09:56:53;;;;;;;20.52;13.02;;;;;;;3.53;100.00;99145.09;5011194;28;20405;-93
2021/12/09 10:00:04;;;;;;;22.02;12.55;;;;;;;3.64;100.00;99142.25;4985689;23;20205;-91
2021/12/09 10:02:55;;;;;;;21.88;13.82;;;;;;;3.54;100.00;99136.28;4981213;28;20039;-92
2021/12/09 10:05:28;;;;;;;21.92;13.27;;;;;;;3.51;100.00;99133.13;4983853;28;20034;-90
2021/12/09 10:07:55;;;;;;;21.98;13.73;;;;;;;3.65;100.00;99137.81;4996264;28;20051;-93
2021/12/09 10:10:23;;;;;;;32.13;15.02;;;;;;;3.58;100.00;99127.13;4983497;28;20031;-91
2021/12/09 10:13:03;;;;;;;22.92;13.70;;;;;;;3.75;100.00;99128.06;4967213;28;20070;-92
2021/12/09 10:15:39;;;;;;;21.92;13.25;;;;;;;3.83;100.00;99135.19;4988862;28;20054;-91
2021/12/09 10:18:05;;;;;;;21.33;13.40;;;;;;;3.87;100.00;99139.97;4966335;28;20065;-93
2021/12/09 10:20:57;;;;;;;23.83;14.55;;;;;;;3.94;100.00;99132.31;4966761;28;20549;-91
2021/12/09 10:23:42;;;;;;;20.73;13.65;;;;;;;3.90;100.00;99136.22;4963262;28;20067;-92
2021/12/09 10:26:13;;;;;;;25.23;14.55;;;;;;;4.02;100.00;99125.31;4981764;28;20039;-90
2021/12/09 10:28:41;;;;;;;23.00;14.60;;;;;;;3.86;100.00;99130.44;4986130;28;20046;-92
2021/12/09 10:31:20;;;;;;;24.77;15.93;;;;;;;3.79;100.00;99128.59;4970262;28;20042;-92
2021/12/09 10:34:42;;;;;;;25.55;14.65;;;;;;;4.08;100.00;99136.97;4970105;28;20041;-89
2021/12/09 10:37:44;;;;;;;23.00;14.27;;;;;;;4.11;100.00;99139.28;4978277;28;20054;-90
2021/12/09 10:40:49;;;;;;;25.08;15.70;;;;;;;3.94;100.00;99132.31;4996623;28;20043;-91
2021/12/09 10:43:56;;;;;;;22.45;14.55;;;;;;;3.96;100.00;99132.97;5000170;28;20073;-93
2021/12/09 10:49:18;;;;;;;29.13;16.25;;;;;;;3.73;100.00;99129.22;5011823;28;20054;-91
2021/12/09 10:54:33;;;;;;;34.80;16.73;;;;;;;3.66;100.00;99131.63;4698410;26;20050;-92
2021/12/09 10:57:23;;;;;;;29.45;16.88;;;;;;;3.78;100.00;99122.53;4955086;28;20043;-91
2021/12/09 11:00:29;;;;;;;28.92;17.08;;;;;;;3.99;100.00;99111.69;4962151;28;20058;-91
2021/12/09 11:03:22;;;;;;;26.80;15.60;;;;;;;3.82;100.00;99107.31;4984209;28;20047;-93
2021/12/09 11:06:12;;;;;;;31.17;15.00;;;;;;;4.11;100.00;99129.63;5002591;28;20058;-92
2021/12/09 11:09:07;;;;;;;24.73;14.23;;;;;;;4.01;100.00;99120.25;5013240;28;20347;-93
2021/12/09 11:11:57;;;;;;;25.77;16.23;;;;;;;4.30;100.00;99128.59;5014535;28;20026;-91
2021/12/09 11:14:27;;;;;;;29.63;16.98;;;;;;;4.13;100.00;99127.69;4976725;28;20053;-92
2021/12/09 11:17:03;;;;;;;31.35;17.02;;;;;;;4.21;100.00;99129.50;5010749;28;20485;-93
2021/12/09 11:20:07;;;;;;;28.13;16.27;;;;;;;4.32;100.00;99131.03;4951712;29;20414;-92
2021/12/09 11:22:37;;;;;;;28.88;16.75;;;;;;;4.07;100.00;99137.97;4961551;28;20043;-91
2021/12/09 11:25:30;;;;;;;37.15;18.10;;;;;;;3.99;100.00;99140.53;4980341;28;20074;-91
2021/12/09 11:28:12;;;;;;;28.80;17.20;;;;;;;4.18;100.00;99135.06;4968494;29;20031;-92
2021/12/09 11:31:07;;;;;;;31.58;17.58;;;;;;;4.43;100.00;99149.97;5000568;28;20041;-91
2021/12/09 11:33:43;;;;;;;32.58;17.40;;;;;;;4.48;100.00;99145.06;4983257;28;20526;-90
2021/12/09 11:36:15;;;;;;;31.67;17.83;;;;;;;4.56;100.00;99139.84;4999776;22;20065;-90
2021/12/09 11:39:12;;;;;;;29.90;17.45;;;;;;;4.82;100.00;99144.22;4971300;28;20035;-90
2021/12/09 11:41:40;;;;;;;27.67;15.85;;;;;;;4.81;100.00;99134.69;4972822;28;20029;-91
2021/12/09 11:44:33;;;;;;;38.88;17.13;;;;;;;4.86;100.00;99141.13;4993559;28;20046;-91
2021/12/09 11:47:03;;;;;;;34.75;18.10;;;;;;;5.11;100.00;99139.34;4988028;28;20039;-90
2021/12/09 11:49:51;;;;;;;34.35;18.77;;;;;;;4.83;100.00;99144.06;4994160;28;20022;-90
2021/12/09 11:52:30;;;;;;;29.63;17.90;;;;;;;4.84;100.00;99147.50;4972681;23;20051;-92
2021/12/09 11:56:11;;;;;;;29.77;17.88;;;;;;;4.40;100.00;99146.84;5063260;23;20085;-88
2021/12/09 11:59:25;;;;;;;;;;;;;;;4.35;100.00;99144.66;5007556;28;20032;-91
2021/12/09 12:11:33;;;;;;;31.48;18.90;;;;;;;4.46;100.00;99154.91;4968037;29;20035;-86
2021/12/09 12:14:07;;;;;;;28.47;17.43;;;;;;;4.34;100.00;99161.38;4955862;28;20071;-91
2021/12/09 12:34:57;;;;;;;30.02;18.02;;;;;;;4.36;100.00;99179.59;4879610;29;20099;-86
2021/12/09 12:38:29;;;;;;;34.75;19.02;;;;;;;4.32;100.00;99173.00;4878867;29;20041;-85
2021/12/09 12:40:47;;;;;;;34.05;19.95;;;;;;;4.21;100.00;99184.56;4940317;28;20055;-88
2021/12/09 12:43:51;;;;;;;32.85;18.55;;;;;;;4.30;100.00;99198.56;4955740;28;20035;-86
2021/12/09 12:49:31;;;;;;;38.60;18.73;;;;;;;4.42;100.00;99200.78;4954980;28;20046;-84
2021/12/09 12:52:09;;;;;;;35.25;18.90;;;;;;;4.43;100.00;99207.69;4955700;28;20066;-87
2021/12/09 12:54:58;;;;;;;33.85;18.73;;;;;;;4.29;100.00;99205.63;4956766;28;20035;-87
2021/12/09 12:57:27;;;;;;;29.98;18.20;;;;;;;4.43;100.00;99218.16;4958583;28;20039;-88
2021/12/09 13:00:12;;;;;;;33.83;19.75;;;;;;;4.21;100.00;99229.16;4963315;28;20099;-90
2021/12/09 13:03:25;;;;;;;32.45;19.15;;;;;;;4.39;100.00;99221.25;4978853;28;20481;-91
2021/12/09 13:07:19;;;;;;;31.38;17.05;;;;;;;4.40;100.00;99233.38;5069876;23;20063;-91
2021/12/09 13:11:22;;;;;;;31.30;17.88;;;;;;;4.38;100.00;99232.69;4976677;29;20058;-90
2021/12/09 13:14:06;;;;;;;31.05;18.50;;;;;;;4.26;100.00;99232.16;4921086;29;20048;-90
2021/12/09 13:19:36;;;;;;;31.30;18.48;;;;;;;4.17;100.00;99227.81;5052061;23;20134;-91
2021/12/09 13:22:22;;;;;;;34.25;20.15;;;;;;;3.96;100.00;99229.94;4961061;29;20499;-90
2021/12/09 13:25:01;;;;;;;33.72;18.85;;;;;;;4.07;100.00;99227.94;4965688;29;20058;-90
2021/12/09 13:28:08;;;;;;;34.13;20.10;;;;;;;4.13;100.00;99234.34;4958321;23;20039;-90
2021/12/09 13:31:09;;;;;;;36.00;20.13;;;;;;;3.87;100.00;99236.09;4895327;29;20060;-91
2021/12/09 13:34:07;;;;;;;36.47;22.45;;;;;;;3.61;100.00;99234.22;4887168;29;20067;-91
2021/12/09 13:50:15;;;;;;;124.95;49.83;;;;;;;3.81;100.00;99244.56;4965123;28;20101;-90
2021/12/09 13:58:22;;;;;;;65.25;30.58;;;;;;;3.54;100.00;99234.97;5282412;23;20082;-92
2021/12/09 14:00:48;;;;;;;51.22;25.42;;;;;;;3.49;100.00;99232.81;4968208;29;20047;-91
2021/12/09 14:03:21;;;;;;;39.20;20.77;;;;;;;3.49;100.00;99238.03;4948724;28;20062;-90
2021/12/09 14:05:58;;;;;;;38.08;20.35;;;;;;;3.32;100.00;99230.97;4938732;29;20044;-89
2021/12/09 14:08:36;;;;;;;41.40;21.63;;;;;;;3.52;100.00;99247.38;4927955;29;20040;-88
2021/12/09 14:11:29;;;;;;;39.72;21.67;;;;;;;3.40;100.00;99248.59;4948656;29;20042;-91
2021/12/09 14:14:05;;;;;;;36.63;21.17;;;;;;;3.35;100.00;99241.16;4937056;29;20051;-90
2021/12/09 14:22:39;;;;;;;39.97;20.98;;;;;;;3.27;100.00;99254.19;4941911;23;20476;-90
2021/12/09 14:25:11;;;;;;;46.88;23.48;;;;;;;3.29;100.00;99246.16;4911631;29;20190;-93
2021/12/09 14:27:53;;;;;;;46.35;21.58;;;;;;;3.46;100.00;99253.22;4956062;29;20125;-89
2021/12/09 14:30:22;;;;;;;52.30;22.25;;;;;;;3.47;100.00;99250.47;4947542;29;20112;-91
2021/12/09 14:32:54;;;;;;;39.00;20.33;;;;;;;3.45;100.00;99256.81;4941452;29;20048;-89
2021/12/09 14:35:33;;;;;;;40.95;20.30;;;;;;;3.45;100.00;99252.41;4927362;29;20031;-91
2021/12/09 14:38:03;;;;;;;36.45;21.38;;;;;;;3.58;100.00;99250.25;4984291;23;20062;-93
2021/12/09 14:40:45;;;;;;;36.85;21.15;;;;;;;3.86;100.00;99261.47;4975199;28;20110;-91
2021/12/09 14:43:15;;;;;;;35.28;20.00;;;;;;;3.73;100.00;99253.19;4985642;28;20093;-88
2021/12/09 14:45:58;;;;;;;39.15;20.08;;;;;;;3.72;100.00;99243.66;4977710;28;20054;-88
2021/12/09 14:48:42;;;;;;;42.65;24.20;;;;;;;3.74;100.00;99240.91;4969138;28;20505;-90
2021/12/09 14:51:27;;;;;;;51.97;27.85;;;;;;;3.44;100.00;99239.47;4988415;28;20042;-92
2021/12/09 14:54:02;;;;;;;49.70;24.08;;;;;;;3.49;100.00;99238.03;4992226;28;20899;-87
2021/12/09 14:56:34;;;;;;;43.50;23.08;;;;;;;3.48;100.00;99240.81;4986154;28;20035;-91
2021/12/09 14:59:17;;;;;;;30.03;16.73;;;;;;;3.25;100.00;99243.00;4983582;28;20039;-91
2021/12/09 15:01:46;;;;;;;40.53;22.00;;;;;;;3.20;100.00;99236.56;4979489;28;20088;-92
2021/12/09 15:04:45;;;;;;;38.83;22.73;;;;;;;3.25;100.00;99231.75;4972450;28;20023;-92
2021/12/09 15:07:46;;;;;;;41.60;21.70;;;;;;;3.36;100.00;99247.22;4967637;28;20043;-87
2021/12/09 15:10:21;;;;;;;35.78;21.08;;;;;;;3.43;100.00;99251.72;4978562;28;20058;-86
2021/12/09 15:12:48;;;;;;;37.40;20.75;;;;;;;3.62;100.00;99253.38;4986930;28;20035;-89
2021/12/09 15:15:25;;;;;;;33.60;20.20;;;;;;;3.54;100.00;99254.16;4961598;28;20081;-88
2021/12/09 15:17:59;;;;;;;35.50;20.48;;;;;;;3.56;100.00;99260.06;4973528;28;20125;-88
2021/12/09 15:20:34;;;;;;;31.20;18.40;;;;;;;3.62;100.00;99269.94;4983812;28;20037;-86
2021/12/09 15:23:08;;;;;;;36.47;18.63;;;;;;;3.97;100.00;99265.69;4964336;29;20047;-88
2021/12/09 15:25:40;;;;;;;39.65;19.02;;;;;;;3.86;100.00;99279.00;4966794;29;20057;-88
2021/12/09 15:28:12;;;;;;;35.43;20.30;;;;;;;3.94;100.00;99281.72;4967639;28;20038;-83
2021/12/09 15:30:53;;;;;;;35.40;18.60;;;;;;;3.89;100.00;99281.31;4974346;28;20054;-85
2021/12/09 15:33:21;;;;;;;35.05;17.90;;;;;;;3.43;100.00;99277.91;4994860;28;20274;-86
2021/12/09 15:35:59;;;;;;;31.70;18.80;;;;;;;3.48;100.00;99288.75;4996446;28;20019;-88
2021/12/09 15:38:26;;;;;;;34.63;19.25;;;;;;;3.74;100.00;99293.31;4962114;28;20066;-88
2021/12/09 15:40:52;;;;;;;39.13;21.38;;;;;;;3.65;100.00;99298.44;4934946;28;20446;-87
2021/12/09 15:43:21;;;;;;;35.63;19.90;;;;;;;3.65;100.00;99306.31;4977416;28;20089;-89
2021/12/09 15:45:54;;;;;;;30.67;18.83;;;;;;;3.68;100.00;99312.25;4978853;28;20122;-88
2021/12/09 15:48:22;;;;;;;30.73;18.35;;;;;;;3.93;100.00;99303.63;4963532;28;20039;-90
2021/12/09 15:51:20;;;;;;;35.70;18.73;;;;;;;4.02;100.00;99315.84;4978148;28;20106;-88
2021/12/09 15:54:13;;;;;;;33.80;20.02;;;;;;;3.85;100.00;99316.66;5115930;28;20384;-88
2021/12/09 15:56:47;;;;;;;34.92;20.30;;;;;;;3.78;100.00;99315.63;5091649;28;20032;-86
2021/12/09 15:59:15;;;;;;;39.97;22.17;;;;;;;3.51;100.00;99319.91;5092035;28;20052;-88
2021/12/09 16:01:43;;;;;;;35.35;19.55;;;;;;;3.53;100.00;99323.22;5091707;28;20032;-85
2021/12/09 16:04:08;;;;;;;36.40;19.50;;;;;;;3.44;100.00;99321.47;5092218;28;20119;-85
2021/12/09 16:06:34;;;;;;;38.42;20.55;;;;;;;3.31;100.00;99330.66;5083248;28;20548;-86
2021/12/09 16:09:00;;;;;;;38.38;21.65;;;;;;;3.38;100.00;99337.75;5076717;28;20028;-87
2021/12/09 16:11:26;;;;;;;36.00;19.92;;;;;;;3.67;100.00;99339.41;5090852;28;20047;-86
2021/12/09 16:13:58;;;;;;;32.10;18.65;;;;;;;3.58;100.00;99341.91;5094704;28;20384;-89
2021/12/09 16:16:33;;;;;;;38.25;21.05;;;;;;;3.51;100.00;99346.09;5092054;28;20131;-86
2021/12/09 16:19:00;;;;;;;35.83;19.27;;;;;;;3.39;100.00;99355.13;5079860;28;20374;-88
2021/12/09 16:21:43;;;;;;;39.95;20.67;;;;;;;3.27;100.00;99355.47;5081220;28;20058;-87
2021/12/09 16:24:09;;;;;;;35.90;20.27;;;;;;;3.25;100.00;99366.06;5073111;28;20045;-86
2021/12/09 16:26:35;;;;;;;34.80;18.70;;;;;;;3.33;100.00;99368.78;5079759;28;20068;-87
2021/12/09 16:29:00;;;;;;;40.03;20.23;;;;;;;3.27;100.00;99379.84;5078727;28;20037;-88
2021/12/09 16:31:26;;;;;;;38.65;20.17;;;;;;;3.32;100.00;99384.63;5085656;28;20051;-86
2021/12/09 16:33:52;;;;;;;49.88;20.70;;;;;;;3.38;100.00;99382.28;5084643;28;20028;-84
2021/12/09 16:36:18;;;;;;;40.10;22.45;;;;;;;3.30;100.00;99387.41;5089501;28;20036;-86
2021/12/09 16:38:46;;;;;;;38.75;21.98;;;;;;;3.12;100.00;99386.50;5087648;28;20051;-84
2021/12/09 16:41:12;;;;;;;39.83;21.63;;;;;;;2.96;100.00;99394.13;5087833;28;20071;-85
2021/12/09 16:43:39;;;;;;;40.88;23.30;;;;;;;2.79;100.00;99400.91;5084887;28;20510;-86
2021/12/09 16:46:07;;;;;;;44.35;24.80;;;;;;;3.00;100.00;99396.31;5074997;28;20036;-83
2021/12/09 16:48:34;;;;;;;42.90;23.92;;;;;;;3.02;100.00;99406.63;5067625;28;20052;-84
2021/12/09 16:51:01;;;;;;;44.78;25.30;;;;;;;3.08;100.00;99411.34;5081677;28;20076;-89
2021/12/09 16:53:34;;;;;;;44.60;24.65;;;;;;;2.80;100.00;99409.59;5091004;28;20040;-88
2021/12/09 16:56:21;;;;;;;52.47;26.25;;;;;;;2.75;100.00;99407.38;5090813;28;20072;-88
2021/12/09 16:58:58;;;;;;;59.60;26.75;;;;;;;2.64;100.00;99404.09;5074312;28;20028;-88
2021/12/09 17:01:24;;;;;;;49.83;25.75;;;;;;;2.43;100.00;99405.06;5057352;28;20033;-87
2021/12/09 17:03:50;;;;;;;51.17;26.65;;;;;;;2.42;100.00;99421.72;5071953;28;20025;-88
2021/12/09 17:06:16;;;;;;;50.97;27.13;;;;;;;2.60;100.00;99427.91;5058837;28;20370;-90
2021/12/09 17:08:41;;;;;;;51.67;27.27;;;;;;;2.55;100.00;99430.09;5081111;28;20024;-90
2021/12/09 17:11:07;;;;;;;53.38;28.17;;;;;;;2.64;100.00;99423.25;5069566;28;20477;-89
2021/12/09 17:13:33;;;;;;;52.30;27.65;;;;;;;2.73;100.00;99426.81;5060453;28;20037;-84
2021/12/09 17:15:58;;;;;;;53.00;28.48;;;;;;;2.50;100.00;99437.56;5060080;28;20401;-87
2021/12/09 17:18:27;;;;;;;56.42;28.50;;;;;;;2.34;100.00;99437.28;5066977;28;20040;-83
2021/12/09 17:20:52;;;;;;;58.58;29.17;;;;;;;2.47;100.00;99439.63;5062884;28;20043;-88
2021/12/09 17:23:18;;;;;;;58.20;29.98;;;;;;;2.54;100.00;99438.94;5077496;28;20485;-86
2021/12/09 17:25:45;;;;;;;53.28;28.58;;;;;;;2.80;100.00;99443.59;5075499;28;20086;-85
2021/12/09 17:28:16;;;;;;;51.97;28.55;;;;;;;2.83;100.00;99433.69;5075588;28;20420;-84
2021/12/09 17:30:47;;;;;;;57.00;29.92;;;;;;;2.77;100.00;99433.41;5059181;28;20048;-83
2021/12/09 17:33:20;;;;;;;56.78;29.15;;;;;;;2.66;100.00;99436.16;5075387;28;20048;-86
2021/12/09 17:35:46;;;;;;;63.88;30.65;;;;;;;2.67;100.00;99436.03;5075536;28;20044;-86
2021/12/09 17:38:12;;;;;;;53.72;29.55;;;;;;;2.71;100.00;99447.06;5075305;28;20093;-85
2021/12/09 17:40:38;;;;;;;57.60;30.20;;;;;;;2.74;100.00;99444.16;5074836;28;20028;-88
2021/12/09 17:43:06;;;;;;;52.22;27.42;;;;;;;2.91;100.00;99446.06;5074715;28;20523;-85
2021/12/09 17:45:32;;;;;;;54.92;29.67;;;;;;;2.87;100.00;99439.47;5076557;28;20149;-83
2021/12/09 17:48:00;;;;;;;54.33;28.85;;;;;;;2.87;100.00;99449.94;5076232;28;20036;-84
2021/12/09 17:50:28;;;;;;;54.97;29.65;;;;;;;2.74;100.00;99452.00;5073265;28;20035;-83
2021/12/09 17:52:58;;;;;;;53.10;29.25;;;;;;;2.78;100.00;99450.78;5073619;28;20041;-85
2021/12/09 17:55:26;;;;;;;59.50;29.23;;;;;;;2.77;100.00;99439.47;5073269;28;20136;-88
2021/12/09 17:57:52;;;;;;;56.60;29.60;;;;;;;2.70;100.00;99448.00;5076237;28;20036;-87
2021/12/09 18:00:25;;;;;;;57.45;28.13;;;;;;;2.87;100.00;99450.75;5074295;28;20482;-83
2021/12/09 18:02:52;;;;;;;53.83;29.25;;;;;;;2.86;100.00;99450.88;5074719;28;20037;-87
2021/12/09 18:05:21;;;;;;;53.13;28.73;;;;;;;2.96;100.00;99459.53;5076995;28;20056;-86
2021/12/09 18:07:49;;;;;;;64.05;32.70;;;;;;;2.45;100.00;99455.44;5077323;28;20493;-85
2021/12/09 18:10:16;;;;;;;54.85;30.25;;;;;;;2.56;100.00;99457.91;5072807;28;20033;-84
2021/12/09 18:12:43;;;;;;;65.00;32.35;;;;;;;2.60;100.00;99471.56;5067009;28;20052;-86
2021/12/09 18:15:16;;;;;;;77.15;39.30;;;;;;;2.15;100.00;99473.84;5072479;28;20115;-88
2021/12/09 18:17:49;;;;;;;70.65;36.80;;;;;;;2.09;100.00;99484.81;5064565;28;20048;-89
2021/12/09 18:20:19;;;;;;;64.25;33.00;;;;;;;2.33;100.00;99490.50;5065435;28;20033;-88
2021/12/09 18:22:50;;;;;;;71.32;34.72;;;;;;;2.53;100.00;99493.97;5068883;28;20039;-88
2021/12/09 18:25:20;;;;;;;68.85;33.20;;;;;;;2.42;100.00;99487.06;5078775;28;20044;-91
2021/12/09 18:27:47;;;;;;;68.55;33.28;;;;;;;2.64;100.00;99490.41;5057377;28;20045;-83
2021/12/09 18:30:16;;;;;;;62.25;31.67;;;;;;;2.45;100.00;99499.88;5065146;28;20119;-89
2021/12/09 18:32:41;;;;;;;58.63;32.42;;;;;;;2.49;100.00;99506.50;5065302;28;20045;-91
2021/12/09 18:35:09;;;;;;;62.22;32.30;;;;;;;2.44;100.00;99511.31;5076957;28;20029;-90
2021/12/09 18:37:45;;;;;;;60.72;31.45;;;;;;;2.42;100.00;99510.63;5078886;28;20112;-85
2021/12/09 18:40:12;;;;;;;60.03;30.88;;;;;;;2.21;100.00;99507.28;5073484;28;20111;-86
2021/12/09 18:42:40;;;;;;;59.50;30.10;;;;;;;2.17;100.00;99508.50;5075902;28;20036;-87
2021/12/09 18:45:09;;;;;;;57.63;29.17;;;;;;;2.02;100.00;99505.41;5073871;28;20029;-86
2021/12/09 18:47:35;;;;;;;70.40;31.15;;;;;;;1.99;100.00;99512.69;5072408;28;20028;-87
2021/12/09 18:50:04;;;;;;;59.13;31.52;;;;;;;2.09;100.00;99497.88;5071558;28;20404;-86
2021/12/09 18:52:30;;;;;;;54.05;28.38;;;;;;;2.34;100.00;99500.03;5069294;28;20075;-84
2021/12/09 18:54:56;;;;;;;56.38;29.20;;;;;;;2.48;100.00;99494.41;5072354;28;20036;-87
2021/12/09 18:57:23;;;;;;;59.05;28.67;;;;;;;2.56;100.00;99491.09;5073172;28;20048;-85
2021/12/09 18:59:49;;;;;;;66.13;32.05;;;;;;;2.26;100.00;99499.84;5073669;28;20466;-83
2021/12/09 19:02:15;;;;;;;63.70;32.33;;;;;;;2.35;100.00;99501.69;5080276;28;20033;-86
2021/12/09 19:04:41;;;;;;;65.82;32.92;;;;;;;2.45;100.00;99512.94;5083212;28;20429;-84
2021/12/09 19:07:06;;;;;;;71.43;34.20;;;;;;;2.30;100.00;99509.09;5073515;28;20048;-85
2021/12/09 19:09:32;;;;;;;62.13;32.15;;;;;;;2.41;100.00;99510.75;5071368;28;20029;-86
2021/12/09 19:11:58;;;;;;;65.63;30.20;;;;;;;2.15;100.00;99515.66;5075592;28;20036;-89
2021/12/09 19:14:24;;;;;;;58.50;31.48;;;;;;;2.11;100.00;99519.50;5078148;28;20036;-87
2021/12/09 19:16:57;;;;;;;68.20;32.17;;;;;;;2.02;100.00;99525.53;5077430;28;20473;-88
2021/12/09 19:19:25;;;;;;;72.68;33.03;;;;;;;1.88;100.00;99523.25;5066374;28;20367;-84
2021/12/09 19:21:52;;;;;;;71.60;36.17;;;;;;;1.60;100.00;99516.94;5060964;28;20578;-88
2021/12/09 19:24:19;;;;;;;73.70;35.53;;;;;;;1.37;100.00;99520.66;5068782;28;20111;-88
2021/12/09 19:26:49;;;;;;;66.82;33.35;;;;;;;1.43;100.00;99518.34;5065179;28;20036;-88
2021/12/09 19:29:16;;;;;;;74.13;36.55;;;;;;;1.15;100.00;99519.03;5067733;28;20366;-87
2021/12/09 19:31:42;;;;;;;73.57;35.38;;;;;;;1.25;100.00;99514.69;5068393;28;20041;-87
2021/12/09 19:34:08;;;;;;;73.63;36.10;;;;;;;1.29;100.00;99510.88;5070131;28;20028;-91
2021/12/09 19:36:35;;;;;;;67.55;34.90;;;;;;;1.28;100.00;99509.22;5070593;28;20131;-89
2021/12/09 19:39:03;;;;;;;70.63;35.08;;;;;;;1.11;100.00;99509.78;5051407;28;20397;-88
2021/12/09 19:41:29;;;;;;;73.90;34.90;;;;;;;0.89;100.00;99513.34;5072404;28;20027;-88
2021/12/09 19:43:56;;;;;;;75.88;35.15;;;;;;;0.92;100.00;99522.69;5080800;28;20036;-88
2021/12/09 19:46:25;;;;;;;78.60;36.15;;;;;;;0.87;100.00;99514.41;5068549;28;20013;-89